createdAt,value
2023-09-29T00:00:28.132Z,83.32
2023-09-29T00:03:20.349Z,83.18
2023-09-29T00:05:52.226Z,83.17
2023-09-29T00:08:24.153Z,82.91
2023-09-29T00:10:56.179Z,82.98
2023-09-29T00:13:27.875Z,82.82
2023-09-29T00:15:59.536Z,82.87
2023-09-29T00:18:33.103Z,83.04
2023-09-29T00:21:04.871Z,83.04
2023-09-29T00:23:37.278Z,83.02
2023-09-29T00:26:09.028Z,82.90
2023-09-29T00:28:40.931Z,83.04
2023-09-29T00:31:12.623Z,82.99
2023-09-29T00:33:44.275Z,82.93
2023-09-29T00:36:16.200Z,82.97
2023-09-29T00:38:48.221Z,82.86
2023-09-29T00:41:20.053Z,82.77
2023-09-29T00:43:52.237Z,82.81
2023-09-29T00:46:26.412Z,82.90
2023-09-29T00:48:58.118Z,82.91
2023-09-29T00:51:30.491Z,82.95
2023-09-29T00:54:02.826Z,82.96
2023-09-29T00:56:34.959Z,82.90
2023-09-29T00:59:10.761Z,82.78
2023-09-29T01:01:42.847Z,82.82
2023-09-29T01:04:14.562Z,83.08
2023-09-29T01:06:46.910Z,83.15
2023-09-29T01:09:18.560Z,83.27
2023-09-29T01:11:50.531Z,83.47
2023-09-29T01:14:22.339Z,83.59
2023-09-29T01:16:54.142Z,83.43
2023-09-29T01:19:27.150Z,83.32
2023-09-29T01:21:59.025Z,83.18
2023-09-29T01:24:30.862Z,83.20
2023-09-29T01:27:02.448Z,83.16
2023-09-29T01:29:34.244Z,83.07
2023-09-29T01:32:06.240Z,83.15
2023-09-29T01:34:38.077Z,83.16
2023-09-29T01:37:14.653Z,83.12
2023-09-29T01:39:46.386Z,83.23
2023-09-29T01:42:18.277Z,83.15
2023-09-29T01:44:50.299Z,83.05
2023-09-29T01:47:23.181Z,83.15
2023-09-29T01:49:54.851Z,83.04
2023-09-29T01:52:26.856Z,83.02
2023-09-29T01:54:58.416Z,83.06
2023-09-29T01:57:30.133Z,83.25
2023-09-29T02:00:02.005Z,83.16
2023-09-29T02:02:45.872Z,83.12
2023-09-29T02:05:18.805Z,83.35
2023-09-29T02:07:52.465Z,83.45
2023-09-29T02:10:25.748Z,83.52
2023-09-29T02:12:59.514Z,83.26
2023-09-29T02:15:32.033Z,83.27
2023-09-29T02:18:05.203Z,83.25
2023-09-29T02:20:39.639Z,83.26
2023-09-29T02:23:11.346Z,83.28
2023-09-29T02:25:44.364Z,83.25
2023-09-29T02:28:16.192Z,83.24
2023-09-29T02:30:47.820Z,83.31
2023-09-29T02:33:19.600Z,83.36
2023-09-29T02:35:52.602Z,83.35
2023-09-29T02:38:24.632Z,83.31
2023-09-29T02:40:56.282Z,83.35
2023-09-29T02:43:30.669Z,83.43
2023-09-29T02:46:02.349Z,83.52
2023-09-29T02:48:34.994Z,83.36
2023-09-29T02:51:14.840Z,83.33
2023-09-29T02:53:50.186Z,83.50
2023-09-29T02:56:22.188Z,83.59
2023-09-29T02:58:55.950Z,83.57
2023-09-29T03:01:27.858Z,83.59
2023-09-29T03:03:59.974Z,83.71
2023-09-29T03:06:33.439Z,83.81
2023-09-29T03:09:05.440Z,83.83
2023-09-29T03:11:37.289Z,83.88
2023-09-29T03:14:09.793Z,84.09
2023-09-29T03:16:41.414Z,84.09
2023-09-29T03:19:13.106Z,84.09
2023-09-29T03:21:44.812Z,83.94
2023-09-29T03:24:17.292Z,83.94
2023-09-29T03:26:50.554Z,83.95
2023-09-29T03:29:22.463Z,83.81
2023-09-29T03:31:56.000Z,84.01
2023-09-29T03:34:27.655Z,83.92
2023-09-29T03:36:59.398Z,84.00
2023-09-29T03:39:30.973Z,83.99
2023-09-29T03:42:01.235Z,83.93
2023-09-29T03:44:33.006Z,83.80
2023-09-29T03:47:04.920Z,83.79
2023-09-29T03:49:36.693Z,83.84
2023-09-29T03:52:09.877Z,83.84
2023-09-29T03:54:41.645Z,83.80
2023-09-29T03:57:13.510Z,83.81
2023-09-29T03:59:45.491Z,83.76
2023-09-29T04:02:18.814Z,83.74
2023-09-29T04:04:50.449Z,83.66
2023-09-29T04:07:22.143Z,83.64
2023-09-29T04:09:52.317Z,83.64
2023-09-29T04:12:23.966Z,83.52
2023-09-29T04:14:54.224Z,83.50
2023-09-29T04:17:25.865Z,83.45
2023-09-29T04:19:56.593Z,83.44
2023-09-29T04:22:28.335Z,83.40
2023-09-29T04:24:58.842Z,83.48
2023-09-29T04:27:30.834Z,83.39
2023-09-29T04:30:03.597Z,83.48
2023-09-29T04:32:35.397Z,83.52
2023-09-29T04:35:08.703Z,83.58
2023-09-29T04:37:41.253Z,83.56
2023-09-29T04:40:14.551Z,83.64
2023-09-29T04:42:46.467Z,83.63
2023-09-29T04:45:18.448Z,83.97
2023-09-29T04:47:50.615Z,84.17
2023-09-29T04:50:22.499Z,84.45
2023-09-29T04:52:54.510Z,84.57
2023-09-29T04:55:28.349Z,84.75
2023-09-29T04:58:00.626Z,84.75
2023-09-29T05:00:33.365Z,84.76
2023-09-29T05:03:07.917Z,84.85
2023-09-29T05:05:40.276Z,84.87
2023-09-29T05:08:12.016Z,84.95
2023-09-29T05:10:45.160Z,85.03
2023-09-29T05:13:17.017Z,85.00
2023-09-29T05:15:49.593Z,85.12
2023-09-29T05:18:21.514Z,85.13
2023-09-29T05:20:53.533Z,85.15
2023-09-29T05:23:25.118Z,85.23
2023-09-29T05:25:55.364Z,85.16
2023-09-29T05:28:26.970Z,84.98
2023-09-29T05:30:58.905Z,85.26
2023-09-29T05:33:30.685Z,85.33
2023-09-29T05:36:02.803Z,85.46
2023-09-29T05:38:34.789Z,85.43
2023-09-29T05:41:06.402Z,85.55
2023-09-29T05:43:36.519Z,85.68
2023-09-29T05:46:08.219Z,85.42
2023-09-29T05:48:41.321Z,85.66
2023-09-29T05:51:13.061Z,85.67
2023-09-29T05:53:45.174Z,85.74
2023-09-29T05:56:17.078Z,85.56
2023-09-29T05:58:48.674Z,85.34
2023-09-29T06:01:18.800Z,85.21
2023-09-29T06:03:51.530Z,85.08
2023-09-29T06:06:24.222Z,85.07
2023-09-29T06:08:56.060Z,85.03
2023-09-29T06:11:27.746Z,85.30
2023-09-29T06:13:59.852Z,85.36
2023-09-29T06:16:31.581Z,85.45
2023-09-29T06:19:03.717Z,85.55
2023-09-29T06:21:36.632Z,85.70
2023-09-29T06:24:10.339Z,85.84
2023-09-29T06:26:42.000Z,86.00
2023-09-29T06:29:13.786Z,86.19
2023-09-29T06:31:43.953Z,85.77
2023-09-29T06:34:16.347Z,85.64
2023-09-29T06:36:49.330Z,86.19
2023-09-29T06:39:20.962Z,86.06
2023-09-29T06:41:52.777Z,86.26
2023-09-29T06:44:24.865Z,86.05
2023-09-29T06:46:56.562Z,85.42
2023-09-29T06:49:28.657Z,85.22
2023-09-29T06:52:00.288Z,84.67
2023-09-29T06:54:32.218Z,84.26
2023-09-29T06:57:03.988Z,83.84
2023-09-29T06:59:35.705Z,84.21
2023-09-29T07:02:07.747Z,83.92
2023-09-29T07:04:39.589Z,83.76
2023-09-29T07:07:11.335Z,84.32
2023-09-29T07:09:43.180Z,84.25
2023-09-29T07:12:14.905Z,83.92
2023-09-29T07:14:46.838Z,84.09
2023-09-29T07:17:18.620Z,84.76
2023-09-29T07:19:50.383Z,84.03
2023-09-29T07:22:22.335Z,84.63
2023-09-29T07:24:58.819Z,86.01
2023-09-29T07:27:31.098Z,84.92
2023-09-29T07:30:02.745Z,85.40
2023-09-29T07:32:34.452Z,84.74
2023-09-29T07:35:08.634Z,84.66
2023-09-29T07:37:40.392Z,84.56
2023-09-29T07:40:14.484Z,85.18
2023-09-29T07:42:46.078Z,85.13
2023-09-29T07:45:18.828Z,84.63
2023-09-29T07:47:50.584Z,84.65
2023-09-29T07:50:22.429Z,84.38
2023-09-29T07:52:54.725Z,84.47
2023-09-29T07:55:27.000Z,83.76
2023-09-29T07:57:58.900Z,83.37
2023-09-29T08:00:30.834Z,81.48
2023-09-29T08:03:02.559Z,82.64
2023-09-29T08:05:34.320Z,82.64
2023-09-29T08:08:07.596Z,81.96
2023-09-29T08:10:39.579Z,81.86
2023-09-29T08:13:11.208Z,79.60
2023-09-29T08:15:43.854Z,79.57
2023-09-29T08:18:18.569Z,78.84
2023-09-29T08:20:55.176Z,76.36
2023-09-29T08:23:31.508Z,76.39
2023-09-29T08:26:04.303Z,76.12
2023-09-29T08:28:35.895Z,75.15
2023-09-29T08:31:16.964Z,75.16
2023-09-29T08:33:51.537Z,76.03
2023-09-29T08:36:23.722Z,74.26
2023-09-29T08:38:55.909Z,73.95
2023-09-29T08:41:30.344Z,73.84
2023-09-29T08:44:07.660Z,72.29
2023-09-29T08:46:44.348Z,71.48
2023-09-29T08:49:18.988Z,70.44
2023-09-29T08:51:51.635Z,70.22
2023-09-29T08:54:25.788Z,71.03
2023-09-29T08:56:59.877Z,69.44
2023-09-29T08:59:32.467Z,69.88
2023-09-29T09:02:04.321Z,69.83
2023-09-29T09:04:36.275Z,68.85
2023-09-29T09:07:07.987Z,66.42
2023-09-29T09:09:39.586Z,67.42
2023-09-29T09:12:11.309Z,67.98
2023-09-29T09:14:45.907Z,66.26
2023-09-29T09:17:17.562Z,64.85
2023-09-29T09:19:52.597Z,65.12
2023-09-29T09:22:43.174Z,64.88
2023-09-29T09:25:18.402Z,63.92
2023-09-29T09:27:53.816Z,62.76
2023-09-29T09:30:26.431Z,62.39
2023-09-29T09:32:58.694Z,60.81
2023-09-29T09:35:31.519Z,60.38
2023-09-29T09:38:04.168Z,60.10
2023-09-29T09:40:36.203Z,59.32
2023-09-29T09:43:10.207Z,59.43
2023-09-29T09:45:45.805Z,59.73
2023-09-29T09:48:22.285Z,60.85
2023-09-29T09:50:58.879Z,59.94
2023-09-29T09:53:32.972Z,58.97
2023-09-29T09:56:16.169Z,60.04
2023-09-29T09:58:50.163Z,58.70
2023-09-29T10:01:23.393Z,57.22
2023-09-29T10:03:58.139Z,57.10
2023-09-29T10:06:31.368Z,56.83
2023-09-29T10:09:08.962Z,57.10
2023-09-29T10:11:43.979Z,57.56
2023-09-29T10:14:16.166Z,56.16
2023-09-29T10:16:47.976Z,55.86
2023-09-29T10:19:20.059Z,55.88
2023-09-29T10:21:51.876Z,56.01
2023-09-29T10:24:30.636Z,55.70
2023-09-29T10:27:05.798Z,55.12
2023-09-29T10:29:39.888Z,54.68
2023-09-29T10:32:16.207Z,54.93
2023-09-29T10:34:49.651Z,55.19
2023-09-29T10:37:25.661Z,55.54
2023-09-29T10:39:57.374Z,55.97
2023-09-29T10:42:35.374Z,56.58
2023-09-29T10:45:08.737Z,55.09
2023-09-29T10:47:40.426Z,53.27
2023-09-29T10:50:13.832Z,53.57
2023-09-29T10:52:46.707Z,53.54
2023-09-29T10:55:18.724Z,52.98
2023-09-29T10:57:51.158Z,53.78
2023-09-29T11:00:23.345Z,51.78
2023-09-29T11:02:55.374Z,51.29
2023-09-29T11:05:27.861Z,51.37
2023-09-29T11:08:00.125Z,50.70
2023-09-29T11:10:32.262Z,50.64
2023-09-29T11:13:04.035Z,51.54
2023-09-29T11:15:41.079Z,50.10
2023-09-29T11:18:12.757Z,49.70
2023-09-29T11:20:54.950Z,49.59
2023-09-29T11:23:26.758Z,49.46
2023-09-29T11:26:00.997Z,51.07
2023-09-29T11:28:32.723Z,50.41
2023-09-29T11:31:04.409Z,50.43
2023-09-29T11:33:36.227Z,49.32
2023-09-29T11:36:16.726Z,49.34
2023-09-29T11:38:48.725Z,50.82
2023-09-29T11:41:22.510Z,49.90
2023-09-29T11:43:54.383Z,50.77
2023-09-29T11:46:27.172Z,49.53
2023-09-29T11:48:58.800Z,50.89
2023-09-29T11:51:30.468Z,50.47
2023-09-29T11:54:02.120Z,50.88
2023-09-29T11:56:33.815Z,50.99
2023-09-29T11:59:05.470Z,52.13
2023-09-29T12:01:37.255Z,52.39
2023-09-29T12:04:09.265Z,52.33
2023-09-29T12:06:40.937Z,51.91
2023-09-29T12:09:12.917Z,52.76
2023-09-29T12:11:44.724Z,52.69
2023-09-29T12:14:16.409Z,52.58
2023-09-29T12:16:48.043Z,51.83
2023-09-29T12:19:21.719Z,51.86
2023-09-29T12:21:53.326Z,52.97
2023-09-29T12:24:25.031Z,53.80
2023-09-29T12:26:56.853Z,53.15
2023-09-29T12:29:30.523Z,53.98
2023-09-29T12:32:02.505Z,52.46
2023-09-29T12:34:36.037Z,52.95
2023-09-29T12:37:09.224Z,52.60
2023-09-29T12:39:41.563Z,52.26
2023-09-29T12:42:13.244Z,52.83
2023-09-29T12:44:47.840Z,52.03
2023-09-29T12:47:19.870Z,51.16
2023-09-29T12:49:51.793Z,50.62
2023-09-29T12:52:23.494Z,51.77
2023-09-29T12:54:58.037Z,51.56
2023-09-29T12:57:29.794Z,52.27
2023-09-29T13:00:01.513Z,52.58
2023-09-29T13:02:33.981Z,51.92
2023-09-29T13:05:07.849Z,52.60
2023-09-29T13:07:39.537Z,52.59
2023-09-29T13:10:12.830Z,53.62
2023-09-29T13:12:47.499Z,54.65
2023-09-29T13:15:19.507Z,54.72
2023-09-29T13:17:52.744Z,53.35
2023-09-29T13:20:24.572Z,53.58
2023-09-29T13:22:56.786Z,54.02
2023-09-29T13:25:29.700Z,54.35
2023-09-29T13:28:01.701Z,53.35
2023-09-29T13:30:43.679Z,52.58
2023-09-29T13:33:27.903Z,54.05
2023-09-29T13:35:59.998Z,54.67
2023-09-29T13:38:31.645Z,54.39
2023-09-29T13:41:03.630Z,52.76
2023-09-29T13:43:35.464Z,52.31
2023-09-29T13:46:09.388Z,53.58
2023-09-29T13:48:41.386Z,52.98
2023-09-29T13:51:13.178Z,54.57
2023-09-29T13:53:45.124Z,56.05
2023-09-29T13:56:17.058Z,54.63
2023-09-29T13:58:48.769Z,54.76
2023-09-29T14:01:21.078Z,55.50
2023-09-29T14:03:57.568Z,56.34
2023-09-29T14:06:30.271Z,56.21
2023-09-29T14:09:15.162Z,55.36
2023-09-29T14:11:50.992Z,55.14
2023-09-29T14:14:23.272Z,55.35
2023-09-29T14:16:54.925Z,56.42
2023-09-29T14:19:26.968Z,56.86
2023-09-29T14:21:58.808Z,56.76
2023-09-29T14:24:32.445Z,57.25
2023-09-29T14:27:04.327Z,57.01
2023-09-29T14:29:36.277Z,57.10
2023-09-29T14:32:08.041Z,57.18
2023-09-29T14:34:40.325Z,58.06
2023-09-29T14:37:12.015Z,57.14
2023-09-29T14:39:43.759Z,57.96
2023-09-29T14:42:15.416Z,57.23
2023-09-29T14:44:48.382Z,58.07
2023-09-29T14:47:20.806Z,58.38
2023-09-29T14:49:52.555Z,58.41
2023-09-29T14:52:24.825Z,59.76
2023-09-29T14:54:57.771Z,59.64
2023-09-29T14:57:29.556Z,59.92
2023-09-29T15:00:02.325Z,59.45
2023-09-29T15:02:34.238Z,59.85
2023-09-29T15:05:06.982Z,60.96
2023-09-29T15:07:38.596Z,61.91
2023-09-29T15:10:11.518Z,62.13
2023-09-29T15:12:43.125Z,62.34
2023-09-29T15:15:15.406Z,62.75
2023-09-29T15:17:47.247Z,63.38
2023-09-29T15:20:19.367Z,64.04
2023-09-29T15:22:50.947Z,64.95
2023-09-29T15:25:24.622Z,65.09
2023-09-29T15:30:43.283Z,65.93
2023-09-29T15:33:15.991Z,65.82
2023-09-29T15:35:56.543Z,66.18
2023-09-29T15:38:28.588Z,66.77
2023-09-29T15:41:00.295Z,67.17
2023-09-29T15:43:32.365Z,67.95
2023-09-29T15:46:11.669Z,67.89
2023-09-29T15:48:45.349Z,67.43
2023-09-29T15:51:17.279Z,67.67
2023-09-29T15:53:55.207Z,68.41
2023-09-29T15:56:27.336Z,68.42
2023-09-29T15:58:58.916Z,68.07
2023-09-29T16:01:30.589Z,67.61
2023-09-29T16:04:03.357Z,67.77
2023-09-29T16:06:35.379Z,68.20
2023-09-29T16:09:07.603Z,68.65
2023-09-29T16:11:39.829Z,68.74
2023-09-29T16:14:12.063Z,68.72
2023-09-29T16:16:44.303Z,69.00
2023-09-29T16:19:15.926Z,69.41
2023-09-29T16:21:47.632Z,69.95
2023-09-29T16:24:19.276Z,70.53
2023-09-29T16:26:50.977Z,70.73
2023-09-29T16:29:22.667Z,70.84
2023-09-29T16:31:54.624Z,71.42
2023-09-29T16:34:26.541Z,72.16
2023-09-29T16:36:58.238Z,72.72
2023-09-29T16:39:31.143Z,72.68
2023-09-29T16:42:02.918Z,73.15
2023-09-29T16:44:35.645Z,72.78
2023-09-29T16:47:07.273Z,73.62
2023-09-29T16:49:38.820Z,73.59
2023-09-29T16:52:10.427Z,74.11
2023-09-29T16:54:44.148Z,74.04
2023-09-29T16:57:16.649Z,74.43
2023-09-29T16:59:48.478Z,74.08
2023-09-29T17:02:20.239Z,74.06
2023-09-29T17:04:52.097Z,73.80
2023-09-29T17:07:23.817Z,73.66
2023-09-29T17:09:55.534Z,73.50
2023-09-29T17:12:28.263Z,73.39
2023-09-29T17:15:01.194Z,73.50
2023-09-29T17:17:33.843Z,73.56
2023-09-29T17:20:06.826Z,73.56
2023-09-29T17:22:38.386Z,73.46
2023-09-29T17:25:12.204Z,73.48
2023-09-29T17:27:43.836Z,73.51
2023-09-29T17:30:17.078Z,73.68
2023-09-29T17:32:48.736Z,74.00
2023-09-29T17:35:20.496Z,74.08
2023-09-29T17:37:54.211Z,74.10
2023-09-29T17:40:26.026Z,74.27
2023-09-29T17:42:57.676Z,74.55
2023-09-29T17:45:29.907Z,74.54
2023-09-29T17:48:01.606Z,74.75
2023-09-29T17:50:37.481Z,74.73
2023-09-29T17:53:09.397Z,74.79
2023-09-29T17:55:41.253Z,74.92
2023-09-29T17:58:15.326Z,74.93
2023-09-29T18:00:47.147Z,75.25
2023-09-29T18:03:19.293Z,75.52
2023-09-29T18:05:50.961Z,76.03
2023-09-29T18:08:22.556Z,76.22
2023-09-29T18:10:54.350Z,76.20
2023-09-29T18:13:29.483Z,76.58
2023-09-29T18:16:06.564Z,76.53
2023-09-29T18:18:38.424Z,76.99
2023-09-29T18:21:10.783Z,76.95
2023-09-29T18:23:42.863Z,77.15
2023-09-29T18:26:16.979Z,77.11
2023-09-29T18:28:48.933Z,77.51
2023-09-29T18:31:20.823Z,77.71
2023-09-29T18:33:52.510Z,77.62
2023-09-29T18:36:29.372Z,77.86
2023-09-29T18:39:01.295Z,77.75
2023-09-29T18:41:35.390Z,78.06
2023-09-29T18:44:11.332Z,78.12
2023-09-29T18:46:45.284Z,78.04
2023-09-29T18:49:21.321Z,78.21
2023-09-29T18:52:00.508Z,78.61
2023-09-29T18:54:34.158Z,78.60
2023-09-29T18:57:06.123Z,78.62
2023-09-29T18:59:45.832Z,78.73
2023-09-29T19:02:24.519Z,78.74
2023-09-29T19:04:56.156Z,78.69
2023-09-29T19:07:32.782Z,79.03
2023-09-29T19:10:10.687Z,79.07
2023-09-29T19:12:48.910Z,79.13
2023-09-29T19:15:26.600Z,79.05
2023-09-29T19:18:04.657Z,79.20
2023-09-29T19:20:43.315Z,79.31
2023-09-29T19:23:15.686Z,78.97
2023-09-29T19:25:47.511Z,79.51
2023-09-29T19:28:19.099Z,79.45
2023-09-29T19:30:50.920Z,79.50
2023-09-29T19:33:23.238Z,79.85
2023-09-29T19:35:57.340Z,79.62
2023-09-29T19:38:32.697Z,79.78
2023-09-29T19:41:04.326Z,80.01
2023-09-29T19:43:36.119Z,79.91
2023-09-29T19:46:08.127Z,80.13
2023-09-29T19:48:41.664Z,80.42
2023-09-29T19:51:14.974Z,80.65
2023-09-29T19:53:49.871Z,80.71
2023-09-29T19:56:22.559Z,80.66
2023-09-29T19:58:58.795Z,80.80
2023-09-29T20:01:31.547Z,81.02
2023-09-29T20:04:06.208Z,81.09
2023-09-29T20:06:38.237Z,81.03
2023-09-29T20:09:10.113Z,81.23
2023-09-29T20:11:41.747Z,81.14
2023-09-29T20:14:14.649Z,81.22
2023-09-29T20:16:46.715Z,81.30
2023-09-29T20:19:18.478Z,81.34
2023-09-29T20:21:50.317Z,81.47
2023-09-29T20:24:24.865Z,81.41
2023-09-29T20:26:57.321Z,81.29
2023-09-29T20:29:29.196Z,81.44
2023-09-29T20:32:00.938Z,81.42
2023-09-29T20:34:33.806Z,81.58
2023-09-29T20:37:08.306Z,81.60
2023-09-29T20:39:39.958Z,81.81
2023-09-29T20:42:13.556Z,81.85
2023-09-29T20:44:46.752Z,81.69
2023-09-29T20:47:18.705Z,81.67
2023-09-29T20:49:50.355Z,81.75
2023-09-29T20:52:22.019Z,81.86
2023-09-29T20:54:54.045Z,81.82
2023-09-29T20:57:27.300Z,81.86
2023-09-29T20:59:59.317Z,81.87
2023-09-29T21:02:30.989Z,81.96
2023-09-29T21:05:02.685Z,82.01
2023-09-29T21:07:34.311Z,81.90
2023-09-29T21:10:09.445Z,81.98
2023-09-29T21:12:41.054Z,82.13
2023-09-29T21:15:14.454Z,82.18
2023-09-29T21:17:46.204Z,82.31
2023-09-29T21:20:17.807Z,82.37
2023-09-29T21:22:53.990Z,82.37
2023-09-29T21:25:26.099Z,82.49
2023-09-29T21:27:57.886Z,82.38
2023-09-29T21:30:30.549Z,82.56
2023-09-29T21:33:02.276Z,82.42
2023-09-29T21:35:35.497Z,82.57
2023-09-29T21:38:07.351Z,82.56
2023-09-29T21:40:39.192Z,82.62
2023-09-29T21:43:11.053Z,82.66
2023-09-29T21:45:42.687Z,82.81
2023-09-29T21:48:14.495Z,82.77
2023-09-29T21:50:46.257Z,82.79
2023-09-29T21:53:17.817Z,82.84
2023-09-29T21:55:49.457Z,82.99
2023-09-29T21:58:22.559Z,82.99
2023-09-29T22:00:54.210Z,83.06
2023-09-29T22:03:27.407Z,83.02
2023-09-29T22:05:59.171Z,83.07
2023-09-29T22:08:30.907Z,83.15
2023-09-29T22:11:02.538Z,82.99
2023-09-29T22:13:34.231Z,83.12
2023-09-29T22:16:06.351Z,82.95
2023-09-29T22:18:38.090Z,83.15
2023-09-29T22:21:09.867Z,83.27
2023-09-29T22:23:41.910Z,83.23
2023-09-29T22:26:22.884Z,83.38
2023-09-29T22:28:54.598Z,83.34
2023-09-29T22:31:26.419Z,83.27
2023-09-29T22:33:58.768Z,83.23
2023-09-29T22:36:31.045Z,83.41
2023-09-29T22:39:02.889Z,83.47
2023-09-29T22:41:34.862Z,83.30
2023-09-29T22:44:07.130Z,83.26
2023-09-29T22:46:39.129Z,83.42
2023-09-29T22:49:12.403Z,83.45
2023-09-29T22:51:44.497Z,83.57
2023-09-29T22:54:16.570Z,83.57
2023-09-29T22:56:48.254Z,83.65
2023-09-29T22:59:21.397Z,83.70
2023-09-29T23:01:53.860Z,83.50
2023-09-29T23:04:26.160Z,83.66
2023-09-29T23:06:58.262Z,83.41
2023-09-29T23:09:29.964Z,83.42
2023-09-29T23:12:04.219Z,83.45
2023-09-29T23:14:37.221Z,83.72
2023-09-29T23:17:09.972Z,83.79
2023-09-29T23:19:41.715Z,83.56
2023-09-29T23:22:13.685Z,83.63
2023-09-29T23:24:45.401Z,83.83
2023-09-29T23:27:17.161Z,84.02
2023-09-29T23:29:49.194Z,84.00
2023-09-29T23:32:21.618Z,84.14
2023-09-29T23:34:53.477Z,84.05
2023-09-29T23:37:25.136Z,84.18
2023-09-29T23:39:56.829Z,84.30
2023-09-29T23:42:28.552Z,84.21
2023-09-29T23:45:01.140Z,84.17
2023-09-29T23:47:33.019Z,84.20
2023-09-29T23:50:06.213Z,84.52
2023-09-29T23:52:37.908Z,84.35
2023-09-29T23:55:12.567Z,84.47
2023-09-29T23:57:44.923Z,84.57
